GDN weather

Gdańsk Lech Wałęsa Airport
Gdańsk, Pomerania, Poland

Public forecast

Using degrees Celsius for public forecast. Weather courtesy of forecast.io.

Current aviation weather report (METAR) for Gdańsk Lech Wałęsa Airport

Retrieved 2019/10/13 23:30 UTC (6 minutes ago):

EPGD 132330Z 21013KT CAVOK 17/14 Q1010

Aviation forecast (TAF) for Gdańsk Lech Wałęsa Airport

Retrieved 2019/10/13 18:37 UTC (5 hours ago):

TAF EPGD 131730Z 1318/1418 13005KT 9999 SCT030 PROB40 TEMPO 1318/1322 -SHRA SCT025TCU BECMG 1400/1402 20010KT TEMPO 1410/1416 25015G27KT BECMG 1412/1414 27012KT